Time;durP1;ratioP1;P1;durP2;ratioP2;P2;SDS_P1;SDS_P2;PMS_P1;PMS_P2;Temp;Humidity;BMP_temperature;BMP_pressure;BME280_temperature;BME280_humidity;BME280_pressure;Samples;Min_cycle;Max_cycle;Signal;HPM_P1;HPM_P2
2024/03/13 00:00:13;;;;;;;2.08;0.70;;;;;;;12.26;49.76;100262.06;4997394;28;20057;-76
2024/03/13 00:03:21;;;;;;;1.63;0.77;;;;;;;12.50;49.44;100261.53;4997015;28;20049;-76
2024/03/13 00:06:25;;;;;;;2.38;0.70;;;;;;;12.37;49.63;100254.63;4997100;28;20062;-75
2024/03/13 00:09:40;;;;;;;2.05;0.60;;;;;;;12.40;49.36;100257.03;4996218;28;20049;-75
2024/03/13 00:12:44;;;;;;;1.30;0.60;;;;;;;12.57;48.39;100250.00;4996652;28;20057;-76
2024/03/13 00:15:49;;;;;;;1.67;0.70;;;;;;;12.54;48.72;100252.16;4997100;28;20048;-75
2024/03/13 00:18:54;;;;;;;1.80;0.65;;;;;;;12.65;48.28;100251.94;4984817;28;20065;-75
2024/03/13 00:21:58;;;;;;;2.08;0.60;;;;;;;12.62;48.39;100244.16;4999024;28;20045;-76
2024/03/13 00:25:03;;;;;;;2.30;0.80;;;;;;;12.44;48.50;100236.06;5003529;28;20160;-76
2024/03/13 00:28:07;;;;;;;2.17;1.20;;;;;;;12.35;48.73;100239.63;4998748;28;20057;-75
2024/03/13 00:31:12;;;;;;;3.92;1.67;;;;;;;12.57;48.41;100241.06;4995872;28;20057;-75
2024/03/13 00:34:18;;;;;;;4.50;1.58;;;;;;;12.67;48.42;100240.03;4996332;28;20058;-75
2024/03/13 00:37:23;;;;;;;4.45;1.90;;;;;;;12.73;47.79;100233.19;4996570;28;20057;-75
2024/03/13 00:40:27;;;;;;;3.42;1.35;;;;;;;12.80;48.04;100231.59;4996530;28;20053;-75
2024/03/13 00:43:32;;;;;;;2.75;1.05;;;;;;;12.74;48.18;100222.25;4996466;28;20053;-74
2024/03/13 00:46:40;;;;;;;2.70;1.17;;;;;;;13.00;47.20;100222.38;4996467;28;20084;-75
2024/03/13 00:49:44;;;;;;;7.68;2.92;;;;;;;12.79;47.69;100219.97;4995567;28;20073;-76
2024/03/13 00:52:48;;;;;;;1.98;0.80;;;;;;;12.79;47.34;100219.09;4996173;28;20054;-75
2024/03/13 00:55:55;;;;;;;2.78;0.95;;;;;;;13.08;47.02;100230.59;4996361;28;20049;-75
2024/03/13 00:59:00;;;;;;;1.92;0.70;;;;;;;13.02;46.70;100228.47;4995387;28;20057;-75
2024/03/13 01:02:04;;;;;;;1.70;0.60;;;;;;;13.23;46.85;100229.03;4984067;28;20502;-75
2024/03/13 01:05:08;;;;;;;1.38;0.50;;;;;;;13.37;46.71;100231.19;4995338;28;20054;-75
2024/03/13 01:08:14;;;;;;;1.30;0.57;;;;;;;13.15;46.84;100234.34;4995268;28;20061;-75
2024/03/13 01:11:18;;;;;;;1.77;0.52;;;;;;;13.23;46.67;100234.44;4984112;28;20057;-75
2024/03/13 01:14:23;;;;;;;4.35;0.70;;;;;;;13.09;46.92;100234.09;4976566;28;20046;-75
2024/03/13 01:17:27;;;;;;;2.85;0.70;;;;;;;13.04;47.40;100229.16;4975736;28;20050;-76
2024/03/13 01:20:31;;;;;;;1.23;0.47;;;;;;;13.13;46.85;100228.28;4976421;28;20394;-75
2024/03/13 01:23:40;;;;;;;1.23;0.45;;;;;;;12.91;47.93;100234.91;4976337;28;20070;-75
2024/03/13 01:26:45;;;;;;;2.42;0.80;;;;;;;12.82;47.71;100229.59;4975530;28;20074;-75
2024/03/13 01:29:50;;;;;;;2.88;1.42;;;;;;;12.86;47.79;100231.00;4975330;28;20050;-76
2024/03/13 01:32:54;;;;;;;1.55;0.65;;;;;;;13.01;47.41;100229.47;4976213;28;20050;-75
2024/03/13 01:35:59;;;;;;;4.03;0.90;;;;;;;12.94;47.32;100228.38;4963973;28;20050;-75
2024/03/13 01:39:04;;;;;;;2.30;1.10;;;;;;;12.91;47.22;100216.03;4975398;28;20046;-75
2024/03/13 01:56:21;;;;;;;2.15;0.57;;;;;;;13.03;47.33;100214.00;4976856;28;20061;-76
2024/03/13 01:59:35;;;;;;;1.10;0.50;;;;;;;13.13;47.19;100209.41;4975963;28;20046;-75
2024/03/13 02:02:40;;;;;;;2.00;0.68;;;;;;;12.56;48.49;100205.25;4975664;28;20054;-76
2024/03/13 02:05:48;;;;;;;1.35;0.50;;;;;;;12.96;47.77;100215.63;4980863;28;20062;-75
2024/03/13 02:08:57;;;;;;;2.20;0.77;;;;;;;12.82;48.39;100210.72;4974550;28;20058;-75
2024/03/13 02:12:08;;;;;;;0.77;0.40;;;;;;;12.61;48.26;100205.66;4966519;28;20057;-75
2024/03/13 02:15:13;;;;;;;1.30;0.40;;;;;;;12.49;48.85;100211.38;4994946;28;20049;-75
2024/03/13 02:18:23;;;;;;;1.63;0.60;;;;;;;12.64;48.85;100210.69;4982812;28;20053;-75
2024/03/13 02:21:28;;;;;;;2.05;0.75;;;;;;;12.68;48.51;100211.25;4995214;28;20053;-75
2024/03/13 02:24:33;;;;;;;1.30;0.50;;;;;;;12.58;49.09;100205.09;4994629;28;20073;-76
2024/03/13 02:27:37;;;;;;;1.35;0.50;;;;;;;12.58;49.52;100208.63;4993970;28;20049;-75
2024/03/13 02:30:42;;;;;;;1.27;0.50;;;;;;;12.38;49.80;100209.72;4994713;28;20053;-76
2024/03/13 02:33:47;;;;;;;1.40;0.60;;;;;;;12.51;49.37;100217.47;4994681;28;20446;-75
2024/03/13 02:36:54;;;;;;;1.55;0.40;;;;;;;12.55;49.78;100213.47;4994632;28;20050;-75
2024/03/13 02:39:58;;;;;;;2.22;0.75;;;;;;;12.61;49.82;100204.78;4982326;28;20057;-76
2024/03/13 02:43:04;;;;;;;1.17;0.52;;;;;;;12.57;50.67;100215.00;4993765;28;20049;-76
2024/03/13 02:46:09;;;;;;;1.02;0.40;;;;;;;12.53;50.99;100208.22;4994438;28;20053;-75
2024/03/13 02:49:15;;;;;;;2.53;0.60;;;;;;;12.49;51.30;100211.38;4994264;28;20049;-76
2024/03/13 02:52:19;;;;;;;1.90;0.63;;;;;;;12.42;51.14;100207.59;4993681;28;20046;-76
2024/03/13 02:55:23;;;;;;;1.60;0.55;;;;;;;12.26;51.73;100210.94;4994132;28;20057;-75
2024/03/13 02:58:28;;;;;;;2.15;0.60;;;;;;;12.34;51.47;100221.81;4994486;28;20065;-75
2024/03/13 03:01:32;;;;;;;0.85;0.40;;;;;;;12.12;52.33;100220.31;4994458;28;20459;-74
2024/03/13 03:04:36;;;;;;;2.00;0.60;;;;;;;12.25;52.17;100215.47;4982297;28;20054;-75
2024/03/13 03:07:41;;;;;;;2.00;0.73;;;;;;;12.13;52.78;100221.16;4994434;28;20045;-75
2024/03/13 03:10:45;;;;;;;3.15;0.52;;;;;;;12.01;52.85;100225.03;4994049;28;20061;-75
2024/03/13 03:13:50;;;;;;;1.50;0.50;;;;;;;12.15;53.21;100228.09;4993652;28;20394;-75
2024/03/13 03:16:54;;;;;;;2.15;0.52;;;;;;;12.26;52.74;100227.06;4997223;28;20057;-75
2024/03/13 03:19:58;;;;;;;2.55;0.60;;;;;;;12.24;53.03;100246.06;4997918;28;20053;-76
2024/03/13 03:23:03;;;;;;;6.53;0.60;;;;;;;12.33;53.03;100239.78;4998070;28;20049;-75
2024/03/13 03:26:09;;;;;;;1.25;0.50;;;;;;;12.31;51.88;100233.72;4998028;28;20057;-75
2024/03/13 03:29:14;;;;;;;1.48;0.50;;;;;;;12.31;51.15;100249.88;4997993;28;20054;-75
2024/03/13 03:32:19;;;;;;;3.47;0.63;;;;;;;12.19;51.51;100253.75;4985938;28;20050;-75
2024/03/13 03:35:24;;;;;;;1.73;0.50;;;;;;;12.12;51.91;100243.72;4997620;28;20058;-75
2024/03/13 03:38:29;;;;;;;1.60;0.60;;;;;;;12.25;50.92;100255.81;4997917;28;20126;-75
2024/03/13 03:41:33;;;;;;;2.58;0.60;;;;;;;11.95;52.56;100258.75;4998925;28;20049;-75
2024/03/13 03:44:38;;;;;;;2.17;0.57;;;;;;;11.95;51.92;100261.44;5000245;28;20053;-75
2024/03/13 03:47:42;;;;;;;1.65;0.55;;;;;;;11.61;53.13;100255.69;4997413;28;20057;-76
2024/03/13 03:50:47;;;;;;;1.63;0.60;;;;;;;11.59;53.51;100254.97;4997545;28;20049;-75
2024/03/13 03:53:51;;;;;;;1.15;0.40;;;;;;;11.87;52.56;100255.09;4996782;28;20053;-75
2024/03/13 03:56:55;;;;;;;1.67;0.80;;;;;;;11.85;53.51;100257.91;4997491;28;20481;-75
2024/03/13 04:00:00;;;;;;;1.85;0.70;;;;;;;11.86;54.34;100269.53;4996700;28;20068;-77
2024/03/13 04:03:06;;;;;;;0.98;0.40;;;;;;;11.74;55.70;100274.25;4997588;28;20053;-75
2024/03/13 04:06:11;;;;;;;1.77;0.50;;;;;;;11.75;55.91;100287.53;4996443;28;20185;-75
2024/03/13 04:09:16;;;;;;;2.30;0.63;;;;;;;11.63;56.75;100285.09;4997288;28;20049;-74
2024/03/13 04:12:20;;;;;;;0.90;0.40;;;;;;;11.53;57.20;100282.41;4984984;28;20069;-75
2024/03/13 04:15:26;;;;;;;1.55;0.60;;;;;;;11.30;57.38;100280.19;4996819;28;20053;-76
2024/03/13 04:18:31;;;;;;;1.77;0.75;;;;;;;11.18;57.42;100273.25;4996961;28;20065;-75
2024/03/13 04:21:35;;;;;;;1.63;0.55;;;;;;;11.14;56.59;100269.97;4997026;28;20500;-75
2024/03/13 04:24:40;;;;;;;1.17;0.50;;;;;;;11.10;57.06;100269.44;4996121;28;20049;-75
2024/03/13 04:27:45;;;;;;;2.20;0.40;;;;;;;11.32;56.94;100270.97;4996352;28;20050;-75
2024/03/13 04:30:50;;;;;;;1.80;0.63;;;;;;;11.68;56.22;100266.72;5002853;28;20433;-75
2024/03/13 04:33:54;;;;;;;2.55;0.82;;;;;;;11.68;56.59;100270.28;5016410;28;20381;-75
2024/03/13 04:36:58;;;;;;;3.55;1.13;;;;;;;11.51;57.44;100272.81;5015552;28;20041;-75
2024/03/13 04:40:04;;;;;;;1.52;0.60;;;;;;;11.53;57.74;100276.22;5015955;28;20057;-74
2024/03/13 04:43:08;;;;;;;2.33;1.15;;;;;;;11.51;57.33;100270.97;5016226;28;20385;-75
2024/03/13 04:46:19;;;;;;;1.70;0.73;;;;;;;11.46;58.43;100261.63;5016099;28;20073;-75
2024/03/13 04:49:23;;;;;;;2.72;0.90;;;;;;;11.50;57.52;100271.13;5014290;28;20057;-74
2024/03/13 04:52:29;;;;;;;2.55;0.80;;;;;;;11.42;58.06;100258.41;5014192;28;20397;-75
2024/03/13 04:55:34;;;;;;;1.70;0.70;;;;;;;11.42;58.42;100279.91;5013954;28;20057;-75
2024/03/13 04:58:38;;;;;;;1.90;0.85;;;;;;;11.37;58.70;100289.38;5013969;28;20185;-75
2024/03/13 05:01:44;;;;;;;1.80;0.70;;;;;;;11.35;59.15;100291.34;5013899;28;20053;-75
2024/03/13 05:04:50;;;;;;;1.98;0.85;;;;;;;11.33;59.30;100293.34;5002626;28;20057;-75
2024/03/13 05:07:56;;;;;;;2.33;0.98;;;;;;;11.36;59.36;100295.72;5013936;28;20573;-75
2024/03/13 05:11:00;;;;;;;1.92;0.70;;;;;;;11.32;59.69;100297.00;5013704;28;20543;-76
2024/03/13 05:14:06;;;;;;;1.67;0.60;;;;;;;11.35;60.47;100300.28;5013254;28;20049;-75
2024/03/13 05:17:15;;;;;;;2.35;0.73;;;;;;;11.37;60.86;100309.03;5013485;28;20053;-75
2024/03/13 05:20:22;;;;;;;3.78;1.13;;;;;;;11.29;61.13;100308.03;5016788;28;20480;-75
2024/03/13 05:23:27;;;;;;;4.25;1.85;;;;;;;11.15;62.30;100305.75;5022026;28;20433;-75
2024/03/13 05:26:33;;;;;;;6.25;1.33;;;;;;;11.28;61.74;100304.50;5009940;28;20049;-75
2024/03/13 05:29:38;;;;;;;2.28;1.20;;;;;;;11.23;62.01;100313.97;5014710;28;20044;-76
2024/03/13 05:32:45;;;;;;;4.20;1.30;;;;;;;11.24;62.09;100313.81;5015381;28;20052;-75
2024/03/13 05:35:50;;;;;;;3.72;0.82;;;;;;;11.02;62.52;100320.28;5015198;28;20068;-75
2024/03/13 05:38:56;;;;;;;3.95;0.90;;;;;;;11.13;62.22;100322.03;5014296;28;20496;-75
2024/03/13 05:42:00;;;;;;;4.05;0.80;;;;;;;11.13;61.47;100328.22;5015192;28;20049;-75
2024/03/13 05:45:08;;;;;;;2.30;0.85;;;;;;;11.31;61.43;100331.06;5014964;28;20104;-75
2024/03/13 05:48:12;;;;;;;3.15;1.00;;;;;;;11.40;60.99;100334.78;5014548;28;20056;-76
2024/03/13 05:51:17;;;;;;;5.45;1.35;;;;;;;11.47;60.89;100326.00;5014967;28;20045;-76
2024/03/13 05:54:21;;;;;;;4.07;1.25;;;;;;;11.53;61.13;100327.28;5002911;28;20053;-75
2024/03/13 05:57:26;;;;;;;6.90;1.35;;;;;;;11.45;61.29;100329.84;5014978;28;20049;-75
2024/03/13 06:00:30;;;;;;;3.88;1.25;;;;;;;11.53;61.56;100324.59;5014829;28;20045;-75
2024/03/13 06:03:35;;;;;;;6.43;1.38;;;;;;;11.62;61.04;100323.75;5014384;28;20045;-75
2024/03/13 06:06:39;;;;;;;4.03;1.00;;;;;;;11.73;61.21;100329.84;5014857;28;20045;-76
2024/03/13 06:09:44;;;;;;;5.07;0.90;;;;;;;11.89;60.38;100331.13;5016362;28;20506;-75
2024/03/13 06:12:48;;;;;;;4.43;1.65;;;;;;;12.07;59.79;100329.41;5034058;28;20065;-75
2024/03/13 06:15:53;;;;;;;7.35;1.67;;;;;;;12.33;58.71;100325.91;5034395;28;20064;-75
2024/03/13 06:18:58;;;;;;;6.22;0.85;;;;;;;12.47;57.66;100329.97;5034299;28;20053;-75
2024/03/13 06:22:03;;;;;;;7.45;1.23;;;;;;;12.50;57.65;100331.53;5033995;28;20052;-75
2024/03/13 06:25:12;;;;;;;9.10;1.92;;;;;;;12.46;58.32;100330.97;5034069;28;20057;-75
2024/03/13 06:31:40;;;;;;;4.22;1.27;;;;;;;12.59;56.68;100336.03;5034063;28;20056;-75
2024/03/13 06:34:45;;;;;;;2.63;0.88;;;;;;;12.59;56.67;100346.81;5034097;28;20061;-76
2024/03/13 06:37:49;;;;;;;5.22;1.67;;;;;;;12.67;56.68;100342.38;5030385;28;20053;-75
2024/03/13 06:40:54;;;;;;;3.85;0.60;;;;;;;12.77;56.06;100345.88;5021847;28;20056;-75
2024/03/13 06:43:58;;;;;;;4.82;1.00;;;;;;;12.71;55.50;100354.56;5033936;28;20048;-75
2024/03/13 06:47:03;;;;;;;3.38;1.02;;;;;;;12.68;55.43;100349.47;5033969;28;20052;-75
2024/03/13 06:50:07;;;;;;;3.58;0.68;;;;;;;12.71;55.38;100351.00;5021218;28;20040;-75
2024/03/13 06:53:12;;;;;;;3.72;0.73;;;;;;;12.74;54.46;100346.16;5021672;28;20045;-77
2024/03/13 06:56:17;;;;;;;5.55;2.65;;;;;;;12.72;54.15;100355.38;5021539;28;20384;-78
2024/03/13 06:59:23;;;;;;;5.30;1.48;;;;;;;12.70;54.47;100360.06;5033799;28;20045;-77
2024/03/13 07:02:28;;;;;;;4.75;1.13;;;;;;;12.67;54.84;100360.34;5033784;28;20040;-76
2024/03/13 07:05:33;;;;;;;3.28;1.08;;;;;;;12.73;55.10;100365.16;5032377;28;20404;-77
2024/03/13 07:08:37;;;;;;;4.63;1.48;;;;;;;12.78;55.19;100369.13;5007307;28;20045;-77
2024/03/13 07:11:42;;;;;;;7.50;1.20;;;;;;;12.97;55.17;100366.34;5011539;28;20053;-79
2024/03/13 07:14:47;;;;;;;4.53;1.30;;;;;;;13.09;55.94;100361.63;5013717;28;20053;-79
2024/03/13 07:17:51;;;;;;;6.45;2.33;;;;;;;13.19;55.86;100353.47;5005311;28;20057;-76
2024/03/13 07:20:59;;;;;;;4.05;1.83;;;;;;;13.39;56.24;100363.13;5013005;28;20053;-78
2024/03/13 07:24:04;;;;;;;2.80;1.60;;;;;;;14.36;53.42;100382.91;5001949;28;20362;-79
2024/03/13 07:27:08;;;;;;;4.63;1.20;;;;;;;15.06;50.18;100379.09;5008261;28;20041;-78
2024/03/13 07:30:16;;;;;;;2.47;0.88;;;;;;;15.26;49.02;100375.09;4994076;28;20049;-77
2024/03/13 07:33:21;;;;;;;3.78;0.98;;;;;;;15.12;49.46;100383.84;5024862;28;20049;-77
2024/03/13 07:36:26;;;;;;;4.53;0.93;;;;;;;15.33;49.33;100373.47;5015735;28;20500;-77
2024/03/13 07:39:30;;;;;;;1.90;0.82;;;;;;;15.73;48.46;100378.97;5013546;28;20045;-81
2024/03/13 07:42:35;;;;;;;2.65;0.95;;;;;;;15.63;48.16;100378.28;5016796;28;20045;-79
2024/03/13 07:45:40;;;;;;;5.97;0.77;;;;;;;15.35;49.25;100379.53;4996783;28;20049;-76
2024/03/13 07:48:44;;;;;;;5.93;1.10;;;;;;;15.26;49.28;100385.91;5020166;28;20053;-79
2024/03/13 07:51:49;;;;;;;3.33;1.20;;;;;;;14.93;50.54;100388.50;5014468;28;20049;-79
2024/03/13 07:54:54;;;;;;;2.60;0.90;;;;;;;14.80;51.22;100387.25;5008291;28;20053;-81
2024/03/13 07:58:00;;;;;;;4.95;1.15;;;;;;;14.75;51.61;100390.44;5011236;28;20053;-83
2024/03/13 08:01:05;;;;;;;3.00;1.00;;;;;;;14.57;52.63;100400.44;5012617;28;20496;-81
2024/03/13 08:04:11;;;;;;;2.78;0.85;;;;;;;14.56;53.59;100397.91;5010387;28;20052;-79
2024/03/13 08:07:15;;;;;;;6.15;1.40;;;;;;;14.51;53.01;100403.81;5016240;28;20496;-76
2024/03/13 08:10:25;;;;;;;4.40;1.48;;;;;;;14.49;53.19;100403.13;5016245;28;20401;-77
2024/03/13 08:13:30;;;;;;;3.90;1.52;;;;;;;14.69;52.87;100417.25;5017130;28;20045;-79
2024/03/13 08:16:35;;;;;;;6.32;2.00;;;;;;;14.98;52.39;100415.06;5006153;28;20045;-78
2024/03/13 08:19:39;;;;;;;5.22;2.17;;;;;;;15.23;51.21;100422.28;5015985;28;20056;-78
2024/03/13 08:22:44;;;;;;;6.70;2.75;;;;;;;15.24;50.66;100431.22;5003627;28;20056;-78
2024/03/13 08:25:48;;;;;;;5.47;2.35;;;;;;;15.49;50.99;100420.38;5015473;28;20044;-79
2024/03/13 08:28:53;;;;;;;7.53;2.90;;;;;;;15.84;50.09;100419.25;5002588;28;20049;-78
2024/03/13 08:31:58;;;;;;;6.25;2.00;;;;;;;16.37;48.89;100426.06;5015573;28;20515;-80
2024/03/13 08:35:03;;;;;;;4.95;2.55;;;;;;;16.68;47.76;100436.06;4996355;28;20054;-79
2024/03/13 08:38:08;;;;;;;6.20;2.47;;;;;;;16.96;47.48;100450.06;5012710;28;20049;-79
2024/03/13 08:41:16;;;;;;;3.78;2.20;;;;;;;17.40;46.68;100448.56;5016427;28;20069;-80
2024/03/13 08:44:21;;;;;;;3.97;2.50;;;;;;;17.98;45.39;100452.69;5003091;28;20057;-78
2024/03/13 08:47:26;;;;;;;6.80;2.72;;;;;;;19.02;42.57;100448.25;5015298;28;20488;-79
2024/03/13 08:50:31;;;;;;;4.22;2.45;;;;;;;20.14;40.51;100450.53;5016167;28;20056;-80
2024/03/13 08:53:36;;;;;;;3.47;2.20;;;;;;;20.91;39.11;100447.91;5016091;28;20057;-80
2024/03/13 08:56:42;;;;;;;4.60;2.47;;;;;;;21.37;38.26;100460.84;5014782;28;20412;-81
2024/03/13 08:59:49;;;;;;;5.65;2.65;;;;;;;22.75;35.62;100464.00;5015963;28;20052;-78
2024/03/13 09:02:56;;;;;;;4.95;2.55;;;;;;;22.07;36.31;100450.63;5015672;28;20069;-78
2024/03/13 09:06:04;;;;;;;5.15;3.00;;;;;;;21.52;37.40;100457.13;5016028;28;20509;-80
2024/03/13 09:09:08;;;;;;;4.88;3.10;;;;;;;20.85;38.41;100460.44;5015780;28;20052;-78
2024/03/13 09:12:15;;;;;;;8.40;3.55;;;;;;;20.75;39.06;100474.44;5003251;28;20057;-79
2024/03/13 09:15:19;;;;;;;7.95;3.60;;;;;;;21.38;38.08;100473.44;5011560;28;20057;-78
2024/03/13 09:18:24;;;;;;;6.75;3.85;;;;;;;20.46;39.89;100471.03;5002868;28;20053;-78
2024/03/13 09:21:29;;;;;;;7.50;3.70;;;;;;;19.60;41.91;100487.41;5014887;28;20049;-77
2024/03/13 09:24:35;;;;;;;6.78;3.40;;;;;;;19.03;43.75;100477.16;5014796;28;20068;-79
2024/03/13 09:27:39;;;;;;;6.90;3.55;;;;;;;18.89;44.62;100468.97;5013952;28;20056;-81
2024/03/13 09:30:43;;;;;;;6.95;4.03;;;;;;;18.52;46.03;100478.81;5002189;28;20096;-79
2024/03/13 09:33:48;;;;;;;7.63;3.60;;;;;;;18.23;47.04;100472.38;5032331;28;20060;-78
2024/03/13 09:36:54;;;;;;;10.55;3.80;;;;;;;18.12;48.08;100471.75;5034085;28;20053;-77
2024/03/13 09:39:58;;;;;;;7.13;4.47;;;;;;;17.86;49.02;100484.00;5034258;28;20053;-80
2024/03/13 09:43:05;;;;;;;10.88;4.75;;;;;;;17.86;49.15;100484.84;5034123;28;20064;-80
2024/03/13 09:46:13;;;;;;;8.50;4.60;;;;;;;17.85;49.04;100487.75;5033130;28;20057;-77
2024/03/13 09:49:19;;;;;;;7.20;4.57;;;;;;;17.75;49.54;100489.84;5034234;28;20049;-81
2024/03/13 09:52:28;;;;;;;8.20;4.53;;;;;;;17.72;49.96;100495.63;5033795;28;20064;-78
2024/03/13 09:55:34;;;;;;;14.10;4.90;;;;;;;17.75;50.43;100492.56;5021599;28;20060;-77
2024/03/13 09:58:43;;;;;;;8.38;5.10;;;;;;;17.30;52.45;100485.06;5033530;28;20048;-79
2024/03/13 10:01:51;;;;;;;7.72;5.43;;;;;;;16.96;53.77;100495.34;5033059;28;20052;-80
2024/03/13 10:04:56;;;;;;;8.35;5.90;;;;;;;16.85;56.11;100501.94;5033360;28;20084;-79
2024/03/13 10:08:03;;;;;;;11.98;5.90;;;;;;;16.82;57.35;100491.44;5033566;28;20057;-78
2024/03/13 10:11:14;;;;;;;10.13;6.15;;;;;;;16.86;57.32;100496.34;5033804;28;20041;-79
2024/03/13 10:14:21;;;;;;;11.07;7.25;;;;;;;16.89;58.90;100484.31;5033357;28;20072;-78
2024/03/13 10:17:34;;;;;;;9.93;6.30;;;;;;;16.98;58.73;100494.13;5033469;28;20052;-79
2024/03/13 10:21:14;;;;;;;9.55;6.07;;;;;;;16.99;58.31;100495.81;5033354;28;20056;-77
2024/03/13 10:24:22;;;;;;;10.68;6.65;;;;;;;16.93;59.84;100501.94;5020755;28;20053;-76
2024/03/13 10:27:27;;;;;;;9.75;7.22;;;;;;;16.99;59.98;100498.53;5033075;28;20401;-77
2024/03/13 10:30:32;;;;;;;10.02;7.50;;;;;;;16.76;60.86;100508.41;5033354;28;20064;-79
2024/03/13 10:33:37;;;;;;;8.35;7.20;;;;;;;17.02;60.07;100508.19;5033318;28;20048;-77
2024/03/13 10:36:43;;;;;;;12.43;7.18;;;;;;;17.14;59.38;100502.22;5032928;28;20080;-76
2024/03/13 10:39:47;;;;;;;18.17;7.80;;;;;;;17.22;58.63;100506.78;5021020;28;20068;-79
2024/03/13 10:42:52;;;;;;;14.80;7.88;;;;;;;17.30;58.47;100507.63;5013131;28;20056;-78
2024/03/13 10:46:00;;;;;;;8.30;6.80;;;;;;;17.64;57.94;100503.78;5005329;28;20046;-80
2024/03/13 10:49:15;;;;;;;10.38;6.95;;;;;;;17.66;58.17;100499.88;4993850;28;20049;-76
2024/03/13 10:52:21;;;;;;;16.95;8.18;;;;;;;18.05;57.13;100497.13;4993086;28;20107;-81
2024/03/13 10:55:27;;;;;;;10.15;7.63;;;;;;;17.98;57.13;100498.84;4992916;28;20049;-79
2024/03/13 10:58:33;;;;;;;14.45;7.47;;;;;;;18.16;56.37;100503.00;4993495;28;20043;-75
2024/03/13 11:01:38;;;;;;;11.07;7.40;;;;;;;18.42;55.25;100494.47;5004762;28;20065;-78
2024/03/13 11:04:44;;;;;;;11.23;7.78;;;;;;;18.73;53.37;100500.72;5021532;28;20042;-80
2024/03/13 11:07:52;;;;;;;10.68;8.25;;;;;;;18.50;54.19;100494.47;4993688;28;20050;-79
2024/03/13 11:10:58;;;;;;;10.85;8.18;;;;;;;18.52;53.88;100495.13;4992563;28;20050;-78
2024/03/13 11:14:03;;;;;;;11.35;7.93;;;;;;;18.51;54.50;100503.47;5010433;28;20046;-79
2024/03/13 11:17:11;;;;;;;11.50;8.85;;;;;;;18.58;53.97;100497.13;5012458;28;20045;-78
2024/03/13 11:20:21;;;;;;;12.20;8.88;;;;;;;18.95;53.37;100484.53;5012444;28;20057;-78
2024/03/13 11:23:34;;;;;;;11.57;9.05;;;;;;;19.08;53.21;100480.16;5013121;28;20069;-80
2024/03/13 11:26:39;;;;;;;14.60;9.57;;;;;;;19.20;51.92;100488.69;5012079;28;20069;-80
2024/03/13 11:29:49;;;;;;;12.20;9.57;;;;;;;19.44;49.97;100480.28;5012213;28;20049;-81
2024/03/13 11:32:55;;;;;;;14.63;10.48;;;;;;;19.18;50.30;100488.88;5012779;28;20034;-80
2024/03/13 11:36:01;;;;;;;14.55;9.82;;;;;;;19.36;50.47;100492.09;5011543;28;20045;-80
2024/03/13 11:39:06;;;;;;;13.80;10.10;;;;;;;19.53;50.25;100489.22;5016732;28;20042;-79
2024/03/13 11:42:14;;;;;;;15.02;10.02;;;;;;;19.41;51.06;100486.94;5014357;28;20038;-78
2024/03/13 11:45:19;;;;;;;13.65;10.65;;;;;;;19.35;51.47;100495.84;5015851;28;20046;-78
2024/03/13 11:48:23;;;;;;;13.30;9.85;;;;;;;19.47;51.65;100485.34;5016551;28;20046;-79
2024/03/13 11:51:31;;;;;;;11.90;9.93;;;;;;;19.14;51.20;100500.31;5017675;28;20068;-80
2024/03/13 11:54:39;;;;;;;12.55;10.48;;;;;;;18.94;52.24;100485.56;5035650;28;20754;-78
2024/03/13 11:57:46;;;;;;;13.38;9.75;;;;;;;18.52;53.39;100486.97;5015538;28;20046;-79
2024/03/13 12:00:51;;;;;;;11.93;10.35;;;;;;;18.66;53.79;100482.63;5015041;28;20049;-77
2024/03/13 12:03:58;;;;;;;14.40;11.02;;;;;;;18.68;54.50;100485.97;5015464;28;20050;-79
2024/03/13 12:07:03;;;;;;;13.27;11.38;;;;;;;18.49;55.90;100484.59;5015465;28;20058;-79
2024/03/13 12:10:15;;;;;;;14.02;11.48;;;;;;;18.31;56.05;100483.19;5015964;28;20046;-78
2024/03/13 12:13:23;;;;;;;12.30;10.77;;;;;;;18.25;54.89;100476.59;5015876;28;20046;-76
2024/03/13 12:16:27;;;;;;;13.27;9.63;;;;;;;18.06;55.34;100477.09;5016053;28;20038;-77
2024/03/13 12:19:32;;;;;;;12.73;10.57;;;;;;;17.90;53.25;100474.50;5015967;28;20049;-79
2024/03/13 12:22:36;;;;;;;15.82;10.68;;;;;;;17.99;53.99;100470.69;5003706;28;20485;-77
2024/03/13 12:25:42;;;;;;;11.52;9.20;;;;;;;17.97;54.43;100468.13;5003724;28;20436;-78
2024/03/13 12:28:50;;;;;;;9.93;8.73;;;;;;;18.13;50.85;100462.59;5003422;28;20114;-77
2024/03/13 12:31:55;;;;;;;13.38;9.48;;;;;;;18.13;50.73;100461.75;5014847;28;20049;-80
2024/03/13 12:34:59;;;;;;;12.60;9.90;;;;;;;18.33;50.25;100449.38;5002079;28;20595;-78
2024/03/13 12:38:04;;;;;;;12.25;8.90;;;;;;;18.51;50.59;100451.81;4996028;28;20403;-78
2024/03/13 12:41:08;;;;;;;15.13;11.32;;;;;;;18.13;52.82;100445.44;4995612;28;20405;-78
2024/03/13 12:44:15;;;;;;;14.35;11.45;;;;;;;18.16;54.05;100445.09;4983758;28;20054;-78
2024/03/13 12:47:19;;;;;;;20.02;10.50;;;;;;;17.97;53.82;100442.88;4995256;28;20054;-78
2024/03/13 12:50:24;;;;;;;19.38;11.50;;;;;;;17.76;55.93;100435.34;4995019;28;20413;-77
2024/03/13 12:53:29;;;;;;;14.75;10.93;;;;;;;17.65;56.26;100435.75;5011307;28;20493;-77
2024/03/13 12:56:34;;;;;;;15.65;12.07;;;;;;;17.62;55.81;100429.84;5001776;28;20481;-79
2024/03/13 12:59:51;;;;;;;19.05;11.68;;;;;;;17.64;56.42;100420.47;5014846;28;20041;-77
2024/03/13 13:03:00;;;;;;;14.68;11.32;;;;;;;17.60;55.91;100416.44;5015972;28;20046;-76
2024/03/13 13:06:14;;;;;;;14.95;11.43;;;;;;;17.62;56.67;100424.41;5015690;28;20046;-81
2024/03/13 13:09:22;;;;;;;14.45;11.88;;;;;;;17.61;56.98;100411.84;5015731;28;20042;-78
2024/03/13 13:12:27;;;;;;;17.15;12.00;;;;;;;17.54;58.35;100419.84;5015337;28;20049;-81
2024/03/13 13:15:31;;;;;;;15.23;12.30;;;;;;;17.54;57.91;100414.44;5003129;28;20041;-78
2024/03/13 13:18:42;;;;;;;15.57;12.00;;;;;;;17.54;58.00;100404.44;5014167;28;20046;-81
2024/03/13 13:21:47;;;;;;;18.77;12.32;;;;;;;17.63;61.08;100410.63;5015042;28;20050;-77
2024/03/13 13:24:52;;;;;;;17.05;12.23;;;;;;;17.81;60.31;100413.06;5015280;28;20045;-78
2024/03/13 13:27:57;;;;;;;16.35;12.18;;;;;;;17.90;59.25;100410.13;5034215;28;20049;-79
2024/03/13 13:31:02;;;;;;;15.85;12.73;;;;;;;17.91;58.49;100410.97;5022514;28;20050;-78
2024/03/13 13:34:08;;;;;;;14.82;12.50;;;;;;;17.86;58.91;100410.66;5035230;28;20045;-77
2024/03/13 13:37:15;;;;;;;16.75;13.35;;;;;;;17.94;58.40;100410.63;5032669;28;20037;-79
2024/03/13 13:40:23;;;;;;;17.00;13.00;;;;;;;18.06;57.42;100406.47;5035090;28;20050;-78
2024/03/13 13:43:32;;;;;;;14.60;11.82;;;;;;;18.10;56.92;100408.63;5034674;28;20049;-76
2024/03/13 13:46:37;;;;;;;17.63;13.55;;;;;;;18.22;57.09;100409.03;5022884;28;20054;-77
2024/03/13 13:49:43;;;;;;;16.85;13.13;;;;;;;18.07;57.80;100403.53;4995246;28;20054;-77
2024/03/13 13:52:48;;;;;;;14.00;11.80;;;;;;;18.18;56.14;100405.84;4995496;28;20046;-76
2024/03/13 13:55:53;;;;;;;16.33;13.43;;;;;;;18.17;55.94;100397.91;4997927;28;20045;-80
2024/03/13 13:58:57;;;;;;;15.70;12.45;;;;;;;18.09;55.55;100396.09;5013736;28;20481;-79
2024/03/13 14:02:04;;;;;;;15.20;12.65;;;;;;;18.13;54.89;100401.97;5014999;28;20050;-81
2024/03/13 14:05:09;;;;;;;16.90;12.82;;;;;;;18.26;54.41;100395.94;5013481;28;20050;-80
2024/03/13 14:08:14;;;;;;;15.63;12.18;;;;;;;18.32;53.40;100390.59;5011046;28;20050;-78
2024/03/13 14:11:19;;;;;;;15.20;12.05;;;;;;;18.27;53.25;100387.59;5013903;28;20042;-78
2024/03/13 14:14:24;;;;;;;16.42;11.95;;;;;;;18.23;52.84;100390.88;4994508;28;20050;-79
2024/03/13 14:17:34;;;;;;;16.52;11.40;;;;;;;18.20;52.34;100387.50;4993462;28;20042;-77
2024/03/13 14:20:39;;;;;;;15.55;11.57;;;;;;;18.26;52.03;100375.06;4994318;28;20050;-77
2024/03/13 14:23:46;;;;;;;16.00;11.13;;;;;;;18.28;50.73;100372.13;4993838;28;20046;-79
2024/03/13 14:26:51;;;;;;;13.82;11.50;;;;;;;18.36;50.24;100383.78;4993865;28;20498;-80
2024/03/13 14:29:55;;;;;;;15.25;11.00;;;;;;;18.29;48.93;100374.69;4981938;28;20501;-81
2024/03/13 14:33:02;;;;;;;16.25;10.93;;;;;;;18.28;48.63;100383.84;4981946;28;20046;-79
2024/03/13 14:36:09;;;;;;;14.57;11.20;;;;;;;18.40;48.34;100376.09;4993958;28;20046;-79